sensor_id;sensor_type;location;lat;lon;timestamp;P1;durP1;ratioP1;P2;durP2;ratioP2
17696;SDS011;8967;47.984;7.842;2022-08-21T00:00:27;2.08;;;1.42;;
17696;SDS011;8967;47.984;7.842;2022-08-21T00:02:58;2.50;;;1.30;;
17696;SDS011;8967;47.984;7.842;2022-08-21T00:05:31;3.55;;;1.25;;
17696;SDS011;8967;47.984;7.842;2022-08-21T00:08:03;1.60;;;1.13;;
17696;SDS011;8967;47.984;7.842;2022-08-21T00:10:31;2.50;;;1.50;;
17696;SDS011;8967;47.984;7.842;2022-08-21T00:12:59;2.05;;;1.23;;
17696;SDS011;8967;47.984;7.842;2022-08-21T00:15:27;1.90;;;1.35;;
17696;SDS011;8967;47.984;7.842;2022-08-21T00:17:56;3.08;;;1.60;;
17696;SDS011;8967;47.984;7.842;2022-08-21T00:20:26;1.45;;;1.33;;
17696;SDS011;8967;47.984;7.842;2022-08-21T00:22:55;1.50;;;1.10;;
17696;SDS011;8967;47.984;7.842;2022-08-21T00:25:22;3.33;;;1.50;;
17696;SDS011;8967;47.984;7.842;2022-08-21T00:27:49;5.45;;;1.33;;
17696;SDS011;8967;47.984;7.842;2022-08-21T00:30:17;1.73;;;1.30;;
17696;SDS011;8967;47.984;7.842;2022-08-21T00:32:45;3.13;;;1.67;;
17696;SDS011;8967;47.984;7.842;2022-08-21T00:35:13;3.60;;;1.50;;
17696;SDS011;8967;47.984;7.842;2022-08-21T00:37:42;1.45;;;1.20;;
17696;SDS011;8967;47.984;7.842;2022-08-21T00:40:13;3.42;;;1.30;;
17696;SDS011;8967;47.984;7.842;2022-08-21T00:42:42;2.80;;;1.35;;
17696;SDS011;8967;47.984;7.842;2022-08-21T00:45:09;5.75;;;1.70;;
17696;SDS011;8967;47.984;7.842;2022-08-21T00:47:37;3.63;;;1.40;;
17696;SDS011;8967;47.984;7.842;2022-08-21T00:50:05;2.13;;;1.30;;
17696;SDS011;8967;47.984;7.842;2022-08-21T00:52:34;4.20;;;1.50;;
17696;SDS011;8967;47.984;7.842;2022-08-21T00:55:03;3.80;;;1.38;;
17696;SDS011;8967;47.984;7.842;2022-08-21T00:57:35;2.00;;;1.17;;
17696;SDS011;8967;47.984;7.842;2022-08-21T01:00:08;2.35;;;1.27;;
17696;SDS011;8967;47.984;7.842;2022-08-21T01:02:38;2.45;;;1.20;;
17696;SDS011;8967;47.984;7.842;2022-08-21T01:05:05;3.70;;;1.27;;
17696;SDS011;8967;47.984;7.842;2022-08-21T01:07:35;1.70;;;1.10;;
17696;SDS011;8967;47.984;7.842;2022-08-21T01:10:03;1.35;;;1.13;;
17696;SDS011;8967;47.984;7.842;2022-08-21T01:12:31;7.93;;;1.83;;
17696;SDS011;8967;47.984;7.842;2022-08-21T01:15:00;1.58;;;1.42;;
17696;SDS011;8967;47.984;7.842;2022-08-21T01:17:29;2.60;;;1.15;;
17696;SDS011;8967;47.984;7.842;2022-08-21T01:19:58;3.92;;;1.77;;
17696;SDS011;8967;47.984;7.842;2022-08-21T01:22:27;2.45;;;1.30;;
17696;SDS011;8967;47.984;7.842;2022-08-21T01:24:54;2.90;;;1.45;;
17696;SDS011;8967;47.984;7.842;2022-08-21T01:27:21;2.13;;;1.45;;
17696;SDS011;8967;47.984;7.842;2022-08-21T01:29:50;1.63;;;1.52;;
17696;SDS011;8967;47.984;7.842;2022-08-21T01:32:23;3.20;;;1.50;;
17696;SDS011;8967;47.984;7.842;2022-08-21T01:34:51;2.17;;;1.55;;
17696;SDS011;8967;47.984;7.842;2022-08-21T01:37:19;7.82;;;1.55;;
17696;SDS011;8967;47.984;7.842;2022-08-21T01:39:51;2.30;;;1.30;;
17696;SDS011;8967;47.984;7.842;2022-08-21T01:42:18;1.50;;;1.30;;
17696;SDS011;8967;47.984;7.842;2022-08-21T01:44:45;3.53;;;1.83;;
17696;SDS011;8967;47.984;7.842;2022-08-21T01:47:13;3.25;;;1.50;;
17696;SDS011;8967;47.984;7.842;2022-08-21T01:49:41;2.20;;;1.55;;
17696;SDS011;8967;47.984;7.842;2022-08-21T01:52:09;2.38;;;1.23;;
17696;SDS011;8967;47.984;7.842;2022-08-21T01:54:37;2.88;;;1.40;;
17696;SDS011;8967;47.984;7.842;2022-08-21T01:57:08;3.10;;;1.35;;
17696;SDS011;8967;47.984;7.842;2022-08-21T01:59:37;4.32;;;1.50;;
17696;SDS011;8967;47.984;7.842;2022-08-21T02:02:05;1.88;;;1.25;;
17696;SDS011;8967;47.984;7.842;2022-08-21T02:04:32;2.97;;;1.60;;
17696;SDS011;8967;47.984;7.842;2022-08-21T02:06:59;1.95;;;1.38;;
17696;SDS011;8967;47.984;7.842;2022-08-21T02:09:27;3.30;;;1.77;;
17696;SDS011;8967;47.984;7.842;2022-08-21T02:11:54;2.25;;;1.55;;
17696;SDS011;8967;47.984;7.842;2022-08-21T02:14:23;3.10;;;1.80;;
17696;SDS011;8967;47.984;7.842;2022-08-21T02:16:52;3.70;;;1.70;;
17696;SDS011;8967;47.984;7.842;2022-08-21T02:19:19;3.08;;;1.65;;
17696;SDS011;8967;47.984;7.842;2022-08-21T02:21:46;3.42;;;1.42;;
17696;SDS011;8967;47.984;7.842;2022-08-21T02:24:13;3.25;;;1.40;;
17696;SDS011;8967;47.984;7.842;2022-08-21T02:26:40;2.33;;;1.45;;
17696;SDS011;8967;47.984;7.842;2022-08-21T02:29:07;2.13;;;1.25;;
17696;SDS011;8967;47.984;7.842;2022-08-21T02:31:36;3.03;;;1.30;;
17696;SDS011;8967;47.984;7.842;2022-08-21T02:34:03;1.58;;;1.45;;
17696;SDS011;8967;47.984;7.842;2022-08-21T02:36:30;5.10;;;1.48;;
17696;SDS011;8967;47.984;7.842;2022-08-21T02:38:58;1.77;;;1.20;;
17696;SDS011;8967;47.984;7.842;2022-08-21T02:41:25;1.77;;;1.67;;
17696;SDS011;8967;47.984;7.842;2022-08-21T02:43:54;2.65;;;1.83;;
17696;SDS011;8967;47.984;7.842;2022-08-21T02:46:21;4.30;;;1.60;;
17696;SDS011;8967;47.984;7.842;2022-08-21T02:48:50;3.85;;;1.90;;
17696;SDS011;8967;47.984;7.842;2022-08-21T02:51:18;3.25;;;1.48;;
17696;SDS011;8967;47.984;7.842;2022-08-21T02:53:47;3.35;;;1.38;;
17696;SDS011;8967;47.984;7.842;2022-08-21T02:56:16;3.78;;;1.50;;
17696;SDS011;8967;47.984;7.842;2022-08-21T02:58:46;1.80;;;1.45;;
17696;SDS011;8967;47.984;7.842;2022-08-21T03:01:16;3.05;;;1.58;;
17696;SDS011;8967;47.984;7.842;2022-08-21T03:03:44;1.55;;;1.45;;
17696;SDS011;8967;47.984;7.842;2022-08-21T03:06:16;2.28;;;1.60;;
17696;SDS011;8967;47.984;7.842;2022-08-21T03:08:44;1.70;;;1.30;;
17696;SDS011;8967;47.984;7.842;2022-08-21T03:11:11;2.88;;;1.42;;
17696;SDS011;8967;47.984;7.842;2022-08-21T03:13:39;2.35;;;1.40;;
17696;SDS011;8967;47.984;7.842;2022-08-21T03:16:08;3.13;;;1.35;;
17696;SDS011;8967;47.984;7.842;2022-08-21T03:18:36;4.10;;;1.40;;
17696;SDS011;8967;47.984;7.842;2022-08-21T03:21:05;2.80;;;1.20;;
17696;SDS011;8967;47.984;7.842;2022-08-21T03:23:36;3.25;;;1.45;;
17696;SDS011;8967;47.984;7.842;2022-08-21T03:26:04;2.22;;;1.38;;
17696;SDS011;8967;47.984;7.842;2022-08-21T03:28:31;2.53;;;1.20;;
17696;SDS011;8967;47.984;7.842;2022-08-21T03:31:00;1.63;;;1.27;;
17696;SDS011;8967;47.984;7.842;2022-08-21T03:33:27;1.42;;;1.33;;
17696;SDS011;8967;47.984;7.842;2022-08-21T03:35:56;4.00;;;1.45;;
17696;SDS011;8967;47.984;7.842;2022-08-21T03:38:26;3.75;;;1.30;;
17696;SDS011;8967;47.984;7.842;2022-08-21T03:40:56;2.60;;;1.50;;
17696;SDS011;8967;47.984;7.842;2022-08-21T03:43:23;1.55;;;1.30;;
17696;SDS011;8967;47.984;7.842;2022-08-21T03:45:50;3.58;;;1.50;;
17696;SDS011;8967;47.984;7.842;2022-08-21T03:48:17;4.30;;;1.63;;
17696;SDS011;8967;47.984;7.842;2022-08-21T03:50:47;5.40;;;1.58;;
17696;SDS011;8967;47.984;7.842;2022-08-21T03:53:14;1.80;;;1.70;;
17696;SDS011;8967;47.984;7.842;2022-08-21T03:55:42;2.65;;;1.33;;
17696;SDS011;8967;47.984;7.842;2022-08-21T03:58:11;2.10;;;1.30;;
17696;SDS011;8967;47.984;7.842;2022-08-21T04:00:38;1.30;;;1.20;;
17696;SDS011;8967;47.984;7.842;2022-08-21T04:03:07;2.70;;;1.40;;
17696;SDS011;8967;47.984;7.842;2022-08-21T04:05:34;2.42;;;1.50;;
17696;SDS011;8967;47.984;7.842;2022-08-21T04:08:02;5.70;;;1.67;;
17696;SDS011;8967;47.984;7.842;2022-08-21T04:10:32;2.05;;;1.42;;
17696;SDS011;8967;47.984;7.842;2022-08-21T04:13:00;5.60;;;1.98;;
17696;SDS011;8967;47.984;7.842;2022-08-21T04:15:29;1.20;;;1.05;;
17696;SDS011;8967;47.984;7.842;2022-08-21T04:17:56;5.40;;;1.90;;
17696;SDS011;8967;47.984;7.842;2022-08-21T04:20:26;4.85;;;1.77;;
17696;SDS011;8967;47.984;7.842;2022-08-21T04:22:55;2.38;;;1.60;;
17696;SDS011;8967;47.984;7.842;2022-08-21T04:25:23;2.10;;;1.60;;
17696;SDS011;8967;47.984;7.842;2022-08-21T04:27:50;1.48;;;1.38;;
17696;SDS011;8967;47.984;7.842;2022-08-21T04:30:20;5.68;;;1.83;;
17696;SDS011;8967;47.984;7.842;2022-08-21T04:32:49;5.10;;;1.55;;
17696;SDS011;8967;47.984;7.842;2022-08-21T04:35:17;1.63;;;1.50;;
17696;SDS011;8967;47.984;7.842;2022-08-21T04:37:49;5.63;;;1.65;;
17696;SDS011;8967;47.984;7.842;2022-08-21T04:40:16;1.60;;;1.48;;
17696;SDS011;8967;47.984;7.842;2022-08-21T04:42:46;4.88;;;1.65;;
17696;SDS011;8967;47.984;7.842;2022-08-21T04:45:16;2.10;;;1.83;;
17696;SDS011;8967;47.984;7.842;2022-08-21T04:47:46;3.15;;;1.90;;
17696;SDS011;8967;47.984;7.842;2022-08-21T04:50:15;3.10;;;1.40;;
17696;SDS011;8967;47.984;7.842;2022-08-21T04:53:02;4.60;;;1.80;;
17696;SDS011;8967;47.984;7.842;2022-08-21T04:55:32;1.50;;;1.40;;
17696;SDS011;8967;47.984;7.842;2022-08-21T04:57:59;2.78;;;1.85;;
17696;SDS011;8967;47.984;7.842;2022-08-21T05:00:27;3.75;;;1.77;;
17696;SDS011;8967;47.984;7.842;2022-08-21T05:02:55;6.30;;;1.73;;
17696;SDS011;8967;47.984;7.842;2022-08-21T05:05:24;5.68;;;1.65;;
17696;SDS011;8967;47.984;7.842;2022-08-21T05:07:54;2.85;;;1.60;;
17696;SDS011;8967;47.984;7.842;2022-08-21T05:10:23;1.95;;;1.52;;
17696;SDS011;8967;47.984;7.842;2022-08-21T05:12:50;4.95;;;1.88;;
17696;SDS011;8967;47.984;7.842;2022-08-21T05:15:18;2.75;;;1.55;;
17696;SDS011;8967;47.984;7.842;2022-08-21T05:17:45;4.43;;;1.80;;
17696;SDS011;8967;47.984;7.842;2022-08-21T05:20:13;2.60;;;1.45;;
17696;SDS011;8967;47.984;7.842;2022-08-21T05:22:40;6.70;;;1.65;;
17696;SDS011;8967;47.984;7.842;2022-08-21T05:25:08;2.03;;;1.80;;
17696;SDS011;8967;47.984;7.842;2022-08-21T05:27:35;2.88;;;1.60;;
17696;SDS011;8967;47.984;7.842;2022-08-21T05:30:04;3.08;;;1.48;;
17696;SDS011;8967;47.984;7.842;2022-08-21T05:32:32;2.90;;;1.70;;
17696;SDS011;8967;47.984;7.842;2022-08-21T05:35:00;3.72;;;2.10;;
17696;SDS011;8967;47.984;7.842;2022-08-21T05:37:28;4.47;;;1.70;;
17696;SDS011;8967;47.984;7.842;2022-08-21T05:39:55;5.10;;;2.22;;
17696;SDS011;8967;47.984;7.842;2022-08-21T05:42:23;2.03;;;1.60;;
17696;SDS011;8967;47.984;7.842;2022-08-21T05:44:50;4.53;;;2.20;;
17696;SDS011;8967;47.984;7.842;2022-08-21T05:47:17;4.10;;;1.83;;
17696;SDS011;8967;47.984;7.842;2022-08-21T05:49:44;3.25;;;1.90;;
17696;SDS011;8967;47.984;7.842;2022-08-21T05:52:11;3.13;;;2.10;;
17696;SDS011;8967;47.984;7.842;2022-08-21T05:54:39;4.97;;;1.80;;
17696;SDS011;8967;47.984;7.842;2022-08-21T05:57:06;3.20;;;2.00;;
17696;SDS011;8967;47.984;7.842;2022-08-21T05:59:33;3.67;;;2.10;;
17696;SDS011;8967;47.984;7.842;2022-08-21T06:02:01;4.40;;;1.80;;
17696;SDS011;8967;47.984;7.842;2022-08-21T06:04:29;5.43;;;1.77;;
17696;SDS011;8967;47.984;7.842;2022-08-21T06:06:56;3.58;;;1.77;;
17696;SDS011;8967;47.984;7.842;2022-08-21T06:09:23;3.13;;;2.08;;
17696;SDS011;8967;47.984;7.842;2022-08-21T06:11:51;4.10;;;2.08;;
17696;SDS011;8967;47.984;7.842;2022-08-21T06:14:18;2.22;;;1.88;;
17696;SDS011;8967;47.984;7.842;2022-08-21T06:16:45;2.55;;;1.63;;
17696;SDS011;8967;47.984;7.842;2022-08-21T06:19:12;2.92;;;1.77;;
17696;SDS011;8967;47.984;7.842;2022-08-21T06:21:39;5.60;;;2.00;;
17696;SDS011;8967;47.984;7.842;2022-08-21T06:24:08;3.08;;;1.73;;
17696;SDS011;8967;47.984;7.842;2022-08-21T06:26:36;2.90;;;1.90;;
17696;SDS011;8967;47.984;7.842;2022-08-21T06:29:05;4.13;;;2.00;;
17696;SDS011;8967;47.984;7.842;2022-08-21T06:31:35;3.47;;;2.05;;
17696;SDS011;8967;47.984;7.842;2022-08-21T06:34:02;7.45;;;2.33;;
17696;SDS011;8967;47.984;7.842;2022-08-21T06:36:29;2.17;;;1.70;;
17696;SDS011;8967;47.984;7.842;2022-08-21T06:38:59;4.53;;;1.90;;
17696;SDS011;8967;47.984;7.842;2022-08-21T06:41:26;2.25;;;2.00;;
17696;SDS011;8967;47.984;7.842;2022-08-21T06:43:53;3.08;;;1.80;;
17696;SDS011;8967;47.984;7.842;2022-08-21T06:46:23;4.85;;;2.08;;
17696;SDS011;8967;47.984;7.842;2022-08-21T06:48:51;3.95;;;2.00;;
17696;SDS011;8967;47.984;7.842;2022-08-21T06:51:18;2.67;;;2.00;;
17696;SDS011;8967;47.984;7.842;2022-08-21T06:53:45;5.03;;;1.90;;
17696;SDS011;8967;47.984;7.842;2022-08-21T06:56:12;3.65;;;1.95;;
17696;SDS011;8967;47.984;7.842;2022-08-21T06:58:39;6.85;;;2.50;;
17696;SDS011;8967;47.984;7.842;2022-08-21T07:01:06;3.60;;;1.70;;
17696;SDS011;8967;47.984;7.842;2022-08-21T07:03:38;10.00;;;2.65;;
17696;SDS011;8967;47.984;7.842;2022-08-21T07:06:07;4.07;;;2.03;;
17696;SDS011;8967;47.984;7.842;2022-08-21T07:08:36;2.65;;;1.80;;
17696;SDS011;8967;47.984;7.842;2022-08-21T07:11:07;4.75;;;2.13;;
17696;SDS011;8967;47.984;7.842;2022-08-21T07:13:39;3.50;;;1.95;;
17696;SDS011;8967;47.984;7.842;2022-08-21T07:16:08;2.83;;;2.35;;
17696;SDS011;8967;47.984;7.842;2022-08-21T07:18:35;5.88;;;3.15;;
17696;SDS011;8967;47.984;7.842;2022-08-21T07:21:04;4.70;;;2.30;;
17696;SDS011;8967;47.984;7.842;2022-08-21T07:23:34;2.88;;;1.98;;
17696;SDS011;8967;47.984;7.842;2022-08-21T07:26:04;5.65;;;2.25;;
17696;SDS011;8967;47.984;7.842;2022-08-21T07:28:32;2.15;;;1.90;;
17696;SDS011;8967;47.984;7.842;2022-08-21T07:31:00;4.82;;;2.20;;
17696;SDS011;8967;47.984;7.842;2022-08-21T07:33:29;3.13;;;2.30;;
17696;SDS011;8967;47.984;7.842;2022-08-21T07:36:00;3.50;;;2.30;;
17696;SDS011;8967;47.984;7.842;2022-08-21T07:38:27;2.28;;;1.90;;
17696;SDS011;8967;47.984;7.842;2022-08-21T07:40:55;2.53;;;1.90;;
17696;SDS011;8967;47.984;7.842;2022-08-21T07:43:25;2.75;;;1.95;;
17696;SDS011;8967;47.984;7.842;2022-08-21T07:45:52;3.40;;;2.03;;
17696;SDS011;8967;47.984;7.842;2022-08-21T07:48:20;5.53;;;2.58;;
17696;SDS011;8967;47.984;7.842;2022-08-21T07:50:47;5.03;;;2.28;;
17696;SDS011;8967;47.984;7.842;2022-08-21T07:53:16;4.53;;;2.50;;
17696;SDS011;8967;47.984;7.842;2022-08-21T07:55:43;4.32;;;1.98;;
17696;SDS011;8967;47.984;7.842;2022-08-21T07:58:10;4.10;;;2.08;;
17696;SDS011;8967;47.984;7.842;2022-08-21T08:00:38;3.38;;;2.05;;
17696;SDS011;8967;47.984;7.842;2022-08-21T08:03:06;5.85;;;2.03;;
17696;SDS011;8967;47.984;7.842;2022-08-21T08:05:33;3.30;;;2.40;;
17696;SDS011;8967;47.984;7.842;2022-08-21T08:08:02;4.43;;;2.15;;
17696;SDS011;8967;47.984;7.842;2022-08-21T08:10:30;3.75;;;2.22;;
17696;SDS011;8967;47.984;7.842;2022-08-21T08:12:58;1.95;;;1.80;;
17696;SDS011;8967;47.984;7.842;2022-08-21T08:15:25;7.22;;;2.72;;
17696;SDS011;8967;47.984;7.842;2022-08-21T08:17:53;4.25;;;2.20;;
17696;SDS011;8967;47.984;7.842;2022-08-21T08:20:21;6.90;;;2.38;;
17696;SDS011;8967;47.984;7.842;2022-08-21T08:22:50;2.38;;;2.00;;
17696;SDS011;8967;47.984;7.842;2022-08-21T08:25:18;2.78;;;1.92;;
17696;SDS011;8967;47.984;7.842;2022-08-21T08:27:48;5.15;;;2.60;;
17696;SDS011;8967;47.984;7.842;2022-08-21T08:30:16;7.25;;;2.53;;
17696;SDS011;8967;47.984;7.842;2022-08-21T08:32:44;3.00;;;2.17;;
17696;SDS011;8967;47.984;7.842;2022-08-21T08:35:12;5.63;;;2.38;;
17696;SDS011;8967;47.984;7.842;2022-08-21T08:37:39;5.95;;;2.45;;
17696;SDS011;8967;47.984;7.842;2022-08-21T08:40:10;5.70;;;2.08;;
17696;SDS011;8967;47.984;7.842;2022-08-21T08:42:41;3.72;;;2.75;;
17696;SDS011;8967;47.984;7.842;2022-08-21T08:45:10;2.33;;;2.13;;
17696;SDS011;8967;47.984;7.842;2022-08-21T08:47:40;5.07;;;2.13;;
17696;SDS011;8967;47.984;7.842;2022-08-21T08:50:11;3.28;;;1.90;;
17696;SDS011;8967;47.984;7.842;2022-08-21T08:52:45;4.40;;;2.10;;
17696;SDS011;8967;47.984;7.842;2022-08-21T08:55:17;3.53;;;2.03;;
17696;SDS011;8967;47.984;7.842;2022-08-21T08:57:47;5.78;;;2.50;;
17696;SDS011;8967;47.984;7.842;2022-08-21T09:00:18;5.72;;;2.58;;
17696;SDS011;8967;47.984;7.842;2022-08-21T09:02:46;6.07;;;2.50;;
17696;SDS011;8967;47.984;7.842;2022-08-21T09:05:19;7.47;;;2.70;;
17696;SDS011;8967;47.984;7.842;2022-08-21T09:07:56;6.05;;;2.40;;
17696;SDS011;8967;47.984;7.842;2022-08-21T09:10:38;5.07;;;2.03;;
17696;SDS011;8967;47.984;7.842;2022-08-21T09:13:15;4.30;;;2.17;;
17696;SDS011;8967;47.984;7.842;2022-08-21T09:15:51;4.85;;;2.35;;
17696;SDS011;8967;47.984;7.842;2022-08-21T09:18:29;6.38;;;2.28;;
17696;SDS011;8967;47.984;7.842;2022-08-21T09:21:10;4.20;;;2.30;;
17696;SDS011;8967;47.984;7.842;2022-08-21T09:23:47;5.45;;;2.50;;
17696;SDS011;8967;47.984;7.842;2022-08-21T09:26:22;4.32;;;2.33;;
17696;SDS011;8967;47.984;7.842;2022-08-21T09:28:55;4.88;;;2.45;;
17696;SDS011;8967;47.984;7.842;2022-08-21T09:31:28;3.13;;;2.10;;
17696;SDS011;8967;47.984;7.842;2022-08-21T09:33:58;7.70;;;2.55;;
17696;SDS011;8967;47.984;7.842;2022-08-21T09:36:30;5.10;;;2.63;;
17696;SDS011;8967;47.984;7.842;2022-08-21T09:39:03;4.05;;;2.33;;
17696;SDS011;8967;47.984;7.842;2022-08-21T09:41:32;4.53;;;2.42;;
17696;SDS011;8967;47.984;7.842;2022-08-21T09:44:02;7.70;;;2.70;;
17696;SDS011;8967;47.984;7.842;2022-08-21T09:46:32;5.68;;;2.47;;
17696;SDS011;8967;47.984;7.842;2022-08-21T09:49:03;3.47;;;2.17;;
17696;SDS011;8967;47.984;7.842;2022-08-21T09:51:31;7.13;;;2.42;;
17696;SDS011;8967;47.984;7.842;2022-08-21T09:54:10;5.82;;;2.67;;
17696;SDS011;8967;47.984;7.842;2022-08-21T09:56:51;7.70;;;2.65;;
17696;SDS011;8967;47.984;7.842;2022-08-21T09:59:39;6.03;;;2.60;;
17696;SDS011;8967;47.984;7.842;2022-08-21T10:02:19;4.03;;;2.25;;
17696;SDS011;8967;47.984;7.842;2022-08-21T10:04:52;6.50;;;2.60;;
17696;SDS011;8967;47.984;7.842;2022-08-21T10:07:21;4.38;;;2.75;;
17696;SDS011;8967;47.984;7.842;2022-08-21T10:09:58;6.32;;;2.65;;
17696;SDS011;8967;47.984;7.842;2022-08-21T10:12:32;3.83;;;2.88;;
17696;SDS011;8967;47.984;7.842;2022-08-21T10:15:09;4.20;;;2.45;;
17696;SDS011;8967;47.984;7.842;2022-08-21T10:17:47;5.15;;;2.35;;
17696;SDS011;8967;47.984;7.842;2022-08-21T10:20:22;3.08;;;2.15;;
17696;SDS011;8967;47.984;7.842;2022-08-21T10:23:01;4.53;;;2.90;;
17696;SDS011;8967;47.984;7.842;2022-08-21T10:25:36;4.93;;;2.50;;
17696;SDS011;8967;47.984;7.842;2022-08-21T10:28:10;5.32;;;2.40;;
17696;SDS011;8967;47.984;7.842;2022-08-21T10:30:45;4.28;;;2.45;;
17696;SDS011;8967;47.984;7.842;2022-08-21T10:33:20;3.22;;;2.13;;
17696;SDS011;8967;47.984;7.842;2022-08-21T10:35:56;2.67;;;2.17;;
17696;SDS011;8967;47.984;7.842;2022-08-21T10:38:34;3.95;;;2.15;;
17696;SDS011;8967;47.984;7.842;2022-08-21T10:41:14;5.38;;;2.45;;
17696;SDS011;8967;47.984;7.842;2022-08-21T10:43:50;4.10;;;2.22;;
17696;SDS011;8967;47.984;7.842;2022-08-21T10:46:29;3.85;;;1.70;;
17696;SDS011;8967;47.984;7.842;2022-08-21T10:49:11;3.38;;;2.13;;
17696;SDS011;8967;47.984;7.842;2022-08-21T10:51:49;2.45;;;1.98;;
17696;SDS011;8967;47.984;7.842;2022-08-21T10:54:25;3.15;;;1.83;;
17696;SDS011;8967;47.984;7.842;2022-08-21T10:57:04;4.60;;;1.83;;
17696;SDS011;8967;47.984;7.842;2022-08-21T10:59:39;5.13;;;1.88;;
17696;SDS011;8967;47.984;7.842;2022-08-21T11:02:13;5.65;;;2.13;;
17696;SDS011;8967;47.984;7.842;2022-08-21T11:04:49;4.57;;;1.70;;
17696;SDS011;8967;47.984;7.842;2022-08-21T11:07:29;7.40;;;2.72;;
17696;SDS011;8967;47.984;7.842;2022-08-21T11:10:03;3.45;;;1.83;;
17696;SDS011;8967;47.984;7.842;2022-08-21T11:12:35;3.15;;;1.75;;
17696;SDS011;8967;47.984;7.842;2022-08-21T11:15:11;2.30;;;1.80;;
17696;SDS011;8967;47.984;7.842;2022-08-21T11:17:50;3.88;;;1.65;;
17696;SDS011;8967;47.984;7.842;2022-08-21T11:20:26;3.10;;;1.42;;
17696;SDS011;8967;47.984;7.842;2022-08-21T11:23:00;3.60;;;1.75;;
17696;SDS011;8967;47.984;7.842;2022-08-21T11:25:34;2.85;;;1.38;;
17696;SDS011;8967;47.984;7.842;2022-08-21T11:28:06;1.50;;;1.30;;
17696;SDS011;8967;47.984;7.842;2022-08-21T11:30:39;2.80;;;1.58;;
17696;SDS011;8967;47.984;7.842;2022-08-21T11:33:18;4.00;;;2.20;;
17696;SDS011;8967;47.984;7.842;2022-08-21T11:35:57;4.57;;;1.73;;
17696;SDS011;8967;47.984;7.842;2022-08-21T11:38:34;2.58;;;1.52;;
17696;SDS011;8967;47.984;7.842;2022-08-21T11:41:08;2.65;;;1.48;;
17696;SDS011;8967;47.984;7.842;2022-08-21T11:43:44;2.10;;;1.52;;
17696;SDS011;8967;47.984;7.842;2022-08-21T11:46:17;3.45;;;1.58;;
17696;SDS011;8967;47.984;7.842;2022-08-21T11:48:56;2.40;;;1.38;;
17696;SDS011;8967;47.984;7.842;2022-08-21T11:51:36;3.40;;;1.45;;
17696;SDS011;8967;47.984;7.842;2022-08-21T11:54:21;2.33;;;1.73;;
17696;SDS011;8967;47.984;7.842;2022-08-21T11:56:55;2.45;;;1.50;;
17696;SDS011;8967;47.984;7.842;2022-08-21T11:59:28;2.47;;;1.60;;
17696;SDS011;8967;47.984;7.842;2022-08-21T12:02:01;2.15;;;1.52;;
17696;SDS011;8967;47.984;7.842;2022-08-21T12:04:32;2.75;;;1.50;;
17696;SDS011;8967;47.984;7.842;2022-08-21T12:07:11;3.20;;;1.60;;
17696;SDS011;8967;47.984;7.842;2022-08-21T12:09:51;2.15;;;1.48;;
17696;SDS011;8967;47.984;7.842;2022-08-21T12:12:24;2.50;;;1.55;;
17696;SDS011;8967;47.984;7.842;2022-08-21T12:15:05;2.85;;;1.45;;
17696;SDS011;8967;47.984;7.842;2022-08-21T12:17:52;2.67;;;1.45;;
17696;SDS011;8967;47.984;7.842;2022-08-21T12:20:26;3.25;;;1.55;;
17696;SDS011;8967;47.984;7.842;2022-08-21T12:23:06;2.97;;;1.80;;
17696;SDS011;8967;47.984;7.842;2022-08-21T12:25:44;3.78;;;1.55;;
17696;SDS011;8967;47.984;7.842;2022-08-21T12:28:25;2.38;;;1.55;;
17696;SDS011;8967;47.984;7.842;2022-08-21T12:30:54;1.98;;;1.33;;
17696;SDS011;8967;47.984;7.842;2022-08-21T12:33:22;3.28;;;1.40;;
17696;SDS011;8967;47.984;7.842;2022-08-21T12:36:02;3.30;;;1.70;;
17696;SDS011;8967;47.984;7.842;2022-08-21T12:38:39;4.47;;;1.80;;
17696;SDS011;8967;47.984;7.842;2022-08-21T12:41:16;2.58;;;1.73;;
17696;SDS011;8967;47.984;7.842;2022-08-21T12:43:48;3.55;;;1.92;;
17696;SDS011;8967;47.984;7.842;2022-08-21T12:46:25;4.00;;;1.98;;
17696;SDS011;8967;47.984;7.842;2022-08-21T12:48:58;1.85;;;1.52;;
17696;SDS011;8967;47.984;7.842;2022-08-21T12:51:33;3.42;;;1.88;;
17696;SDS011;8967;47.984;7.842;2022-08-21T12:54:10;9.10;;;2.00;;
17696;SDS011;8967;47.984;7.842;2022-08-21T12:56:55;3.90;;;1.90;;
17696;SDS011;8967;47.984;7.842;2022-08-21T12:59:23;2.38;;;1.65;;
17696;SDS011;8967;47.984;7.842;2022-08-21T13:01:53;3.63;;;1.80;;
17696;SDS011;8967;47.984;7.842;2022-08-21T13:04:24;5.03;;;2.08;;
17696;SDS011;8967;47.984;7.842;2022-08-21T13:07:04;3.95;;;1.90;;
17696;SDS011;8967;47.984;7.842;2022-08-21T13:09:39;3.67;;;1.90;;
17696;SDS011;8967;47.984;7.842;2022-08-21T13:12:11;4.10;;;2.30;;
17696;SDS011;8967;47.984;7.842;2022-08-21T13:14:39;5.50;;;2.10;;
17696;SDS011;8967;47.984;7.842;2022-08-21T13:17:09;3.70;;;2.10;;
17696;SDS011;8967;47.984;7.842;2022-08-21T13:19:38;2.67;;;1.80;;
17696;SDS011;8967;47.984;7.842;2022-08-21T13:22:06;5.63;;;2.08;;
17696;SDS011;8967;47.984;7.842;2022-08-21T13:24:41;4.53;;;1.73;;
17696;SDS011;8967;47.984;7.842;2022-08-21T13:27:18;2.75;;;1.52;;
17696;SDS011;8967;47.984;7.842;2022-08-21T13:30:00;3.63;;;2.00;;
17696;SDS011;8967;47.984;7.842;2022-08-21T13:32:34;4.93;;;1.80;;
17696;SDS011;8967;47.984;7.842;2022-08-21T13:35:10;3.53;;;2.08;;
17696;SDS011;8967;47.984;7.842;2022-08-21T13:37:43;3.78;;;2.15;;
17696;SDS011;8967;47.984;7.842;2022-08-21T13:40:17;3.15;;;1.65;;
17696;SDS011;8967;47.984;7.842;2022-08-21T13:42:46;5.05;;;2.10;;
17696;SDS011;8967;47.984;7.842;2022-08-21T13:45:17;3.63;;;1.85;;
17696;SDS011;8967;47.984;7.842;2022-08-21T13:47:49;2.28;;;1.80;;
17696;SDS011;8967;47.984;7.842;2022-08-21T13:50:18;3.33;;;1.70;;
17696;SDS011;8967;47.984;7.842;2022-08-21T13:52:49;2.78;;;1.90;;
17696;SDS011;8967;47.984;7.842;2022-08-21T13:55:24;2.40;;;1.65;;
17696;SDS011;8967;47.984;7.842;2022-08-21T13:58:00;3.00;;;1.63;;
17696;SDS011;8967;47.984;7.842;2022-08-21T14:00:29;4.00;;;2.03;;
17696;SDS011;8967;47.984;7.842;2022-08-21T14:03:01;1.95;;;1.58;;
17696;SDS011;8967;47.984;7.842;2022-08-21T14:05:32;2.97;;;1.80;;
17696;SDS011;8967;47.984;7.842;2022-08-21T14:08:04;2.35;;;1.80;;
17696;SDS011;8967;47.984;7.842;2022-08-21T14:10:36;3.15;;;1.70;;
17696;SDS011;8967;47.984;7.842;2022-08-21T14:13:14;4.18;;;1.50;;
17696;SDS011;8967;47.984;7.842;2022-08-21T14:15:56;3.35;;;1.70;;
17696;SDS011;8967;47.984;7.842;2022-08-21T14:18:24;3.53;;;1.90;;
17696;SDS011;8967;47.984;7.842;2022-08-21T14:20:52;2.42;;;1.60;;
17696;SDS011;8967;47.984;7.842;2022-08-21T14:23:31;3.50;;;1.92;;
17696;SDS011;8967;47.984;7.842;2022-08-21T14:26:00;3.63;;;1.73;;
17696;SDS011;8967;47.984;7.842;2022-08-21T14:28:31;3.83;;;1.73;;
17696;SDS011;8967;47.984;7.842;2022-08-21T14:31:10;2.63;;;1.77;;
17696;SDS011;8967;47.984;7.842;2022-08-21T14:33:40;7.88;;;1.90;;
17696;SDS011;8967;47.984;7.842;2022-08-21T14:36:08;2.25;;;1.63;;
17696;SDS011;8967;47.984;7.842;2022-08-21T14:38:36;2.83;;;1.58;;
17696;SDS011;8967;47.984;7.842;2022-08-21T14:41:11;8.23;;;1.95;;
17696;SDS011;8967;47.984;7.842;2022-08-21T14:43:42;2.65;;;1.60;;
17696;SDS011;8967;47.984;7.842;2022-08-21T14:46:11;2.92;;;1.80;;
17696;SDS011;8967;47.984;7.842;2022-08-21T14:48:41;4.70;;;2.03;;
17696;SDS011;8967;47.984;7.842;2022-08-21T14:51:08;3.47;;;1.98;;
17696;SDS011;8967;47.984;7.842;2022-08-21T14:53:35;3.17;;;1.67;;
17696;SDS011;8967;47.984;7.842;2022-08-21T14:56:03;3.70;;;1.70;;
17696;SDS011;8967;47.984;7.842;2022-08-21T14:58:34;1.75;;;1.58;;
17696;SDS011;8967;47.984;7.842;2022-08-21T15:01:04;2.55;;;1.92;;
17696;SDS011;8967;47.984;7.842;2022-08-21T15:03:32;1.65;;;1.55;;
17696;SDS011;8967;47.984;7.842;2022-08-21T15:06:00;1.92;;;1.55;;
17696;SDS011;8967;47.984;7.842;2022-08-21T15:08:28;4.30;;;1.63;;
17696;SDS011;8967;47.984;7.842;2022-08-21T15:10:55;4.50;;;1.58;;
17696;SDS011;8967;47.984;7.842;2022-08-21T15:13:24;4.75;;;1.92;;
17696;SDS011;8967;47.984;7.842;2022-08-21T15:15:56;2.15;;;1.95;;
17696;SDS011;8967;47.984;7.842;2022-08-21T15:18:26;3.85;;;1.98;;
17696;SDS011;8967;47.984;7.842;2022-08-21T15:20:55;2.75;;;1.80;;